Wetterdaten: Woche 22.10.07 - 28.10.07 (KW43)
Datum Zeit Temperatur Luftfeuchte Luftdruck Niederschlag Wind Richtung Sonnenschein Solar Taupunkt Windchill Windben
22.10.2007 00:00 3.6 C 85 % 1025.1 hPa 0.4 l/m 2.7 km/h (1 Bft) O-SO 0.00 h 0 W/m 1.3 C 3.3 C 5.1 km/h (1 Bft)
22.10.2007 01:00 2.8 C 93 % 1025.0 hPa 0.0 l/m 0.4 km/h (0 Bft) NO 0.00 h 0 W/m 1.7 C 2.8 C 1.2 km/h (1 Bft)
22.10.2007 02:00 2.3 C 94 % 1025.0 hPa 0.2 l/m 1.0 km/h (0 Bft) N-NO 0.00 h 0 W/m 1.4 C 2.3 C 2.6 km/h (1 Bft)
22.10.2007 03:00 2.7 C 90 % 1024.7 hPa 0.0 l/m 1.1 km/h (1 Bft) N-NO 0.00 h 0 W/m 1.1 C 2.7 C 3.0 km/h (1 Bft)
22.10.2007 04:00 2.4 C 87 % 1024.4 hPa 0.0 l/m 1.5 km/h (1 Bft) NO 0.00 h 0 W/m 0.5 C 2.4 C 4.2 km/h (1 Bft)
22.10.2007 05:00 1.6 C 88 % 1024.5 hPa 0.0 l/m 1.6 km/h (1 Bft) NO 0.00 h 0 W/m -0.2 C 1.6 C 3.9 km/h (1 Bft)
22.10.2007 06:00 1.0 C 90 % 1024.3 hPa 0.0 l/m 1.0 km/h (0 Bft) O-SO 0.00 h 0 W/m -0.5 C 1.0 C 2.5 km/h (1 Bft)
22.10.2007 07:00 0.8 C 90 % 1024.2 hPa 0.0 l/m 0.9 km/h (0 Bft) NO 0.00 h 5 W/m -0.6 C 0.8 C 3.0 km/h (1 Bft)
22.10.2007 08:00 1.0 C 89 % 1024.6 hPa 0.0 l/m 1.8 km/h (1 Bft) NO 0.00 h 23 W/m -0.6 C 1.0 C 4.3 km/h (1 Bft)
22.10.2007 09:00 2.2 C 83 % 1024.7 hPa 0.0 l/m 3.6 km/h (1 Bft) N-NO 0.37 h 114 W/m -0.4 C 1.7 C 7.2 km/h (2 Bft)
22.10.2007 10:00 3.6 C 78 % 1024.4 hPa 0.0 l/m 4.0 km/h (1 Bft) N-NO 0.02 h 140 W/m 0.1 C 2.9 C 8.8 km/h (2 Bft)
22.10.2007 11:00 4.6 C 71 % 1024.0 hPa 0.0 l/m 5.5 km/h (1 Bft) N-NO 0.02 h 170 W/m -0.1 C 3.6 C 11.0 km/h (2 Bft)
22.10.2007 12:00 5.3 C 66 % 1023.8 hPa 0.0 l/m 5.6 km/h (1 Bft) N 0.08 h 192 W/m -0.4 C 4.4 C 11.2 km/h (2 Bft)
22.10.2007 13:00 5.6 C 63 % 1023.1 hPa 0.0 l/m 5.9 km/h (2 Bft) O 0.00 h 151 W/m -0.8 C 4.5 C 12.0 km/h (2 Bft)
22.10.2007 14:00 6.3 C 59 % 1022.6 hPa 0.0 l/m 5.3 km/h (1 Bft) O-SO 0.13 h 196 W/m -1.0 C 5.5 C 11.0 km/h (2 Bft)
22.10.2007 15:00 6.0 C 59 % 1022.7 hPa 0.0 l/m 6.0 km/h (2 Bft) O 0.00 h 85 W/m -1.3 C 5.0 C 12.3 km/h (3 Bft)
22.10.2007 16:00 5.7 C 61 % 1022.6 hPa 0.0 l/m 4.6 km/h (1 Bft) N-NO 0.00 h 55 W/m -1.1 C 5.0 C 8.5 km/h (2 Bft)
22.10.2007 17:00 5.4 C 62 % 1022.6 hPa 0.0 l/m 3.9 km/h (1 Bft) O 0.00 h 15 W/m -1.2 C 4.9 C 8.8 km/h (2 Bft)
22.10.2007 18:00 5.3 C 62 % 1022.8 hPa 0.0 l/m 4.0 km/h (1 Bft) O-SO 0.00 h 5 W/m -1.3 C 4.8 C 8.3 km/h (2 Bft)
22.10.2007 19:00 5.1 C 64 % 1022.8 hPa 0.0 l/m 4.4 km/h (1 Bft) N-NO 0.00 h 0 W/m -1.1 C 4.5 C 9.0 km/h (2 Bft)
22.10.2007 20:00 4.9 C 64 % 1022.7 hPa 0.0 l/m 3.6 km/h (1 Bft) O-NO 0.00 h 0 W/m -1.3 C 4.5 C 7.5 km/h (2 Bft)
22.10.2007 21:00 4.8 C 66 % 1022.3 hPa 0.0 l/m 3.4 km/h (1 Bft) O 0.00 h 0 W/m -1.0 C 4.4 C 7.7 km/h (2 Bft)
22.10.2007 22:00 4.7 C 67 % 1021.7 hPa 0.0 l/m 3.7 km/h (1 Bft) NO 0.00 h 0 W/m -0.9 C 4.3 C 8.3 km/h (2 Bft)
22.10.2007 23:00 4.7 C 68 % 1021.4 hPa 0.0 l/m 5.7 km/h (1 Bft) NO 0.00 h 0 W/m -0.8 C 3.6 C 12.7 km/h (3 Bft)
23.10.2007 00:00 4.6 C 69 % 1021.1 hPa 0.0 l/m 4.8 km/h (1 Bft) O-SO 0.00 h 0 W/m -0.5 C 3.7 C 9.6 km/h (2 Bft)
23.10.2007 01:00 4.4 C 69 % 1020.8 hPa 0.0 l/m 4.7 km/h (1 Bft) NO 0.00 h 0 W/m -0.8 C 3.6 C 9.8 km/h (2 Bft)
23.10.2007 02:00 4.2 C 70 % 1020.5 hPa 0.0 l/m 3.3 km/h (1 Bft) O 0.00 h 0 W/m -0.8 C 3.8 C 6.9 km/h (2 Bft)
23.10.2007 03:00 4.2 C 70 % 1020.0 hPa 0.0 l/m 5.1 km/h (1 Bft) O-NO 0.00 h 0 W/m -0.8 C 3.3 C 10.4 km/h (2 Bft)
23.10.2007 04:00 4.1 C 72 % 1019.6 hPa 0.0 l/m 2.9 km/h (1 Bft) O 0.00 h 0 W/m -0.5 C 3.8 C 5.9 km/h (2 Bft)
23.10.2007 05:00 4.0 C 74 % 1019.8 hPa 0.0 l/m 3.0 km/h (1 Bft) O 0.00 h 0 W/m -0.3 C 3.6 C 6.1 km/h (2 Bft)
23.10.2007 06:00 3.9 C 74 % 1019.6 hPa 0.0 l/m 3.0 km/h (1 Bft) NO 0.00 h 0 W/m -0.2 C 3.6 C 6.6 km/h (2 Bft)
23.10.2007 07:00 3.9 C 74 % 1019.4 hPa 0.0 l/m 3.8 km/h (1 Bft) N-NO 0.00 h 0 W/m -0.2 C 3.3 C 7.7 km/h (2 Bft)
23.10.2007 08:00 4.0 C 75 % 1019.8 hPa 0.0 l/m 2.3 km/h (1 Bft) N-NO 0.00 h 15 W/m -0.0 C 3.7 C 5.7 km/h (1 Bft)
23.10.2007 09:00 4.4 C 75 % 1020.1 hPa 0.0 l/m 3.2 km/h (1 Bft) O 0.00 h 46 W/m 0.4 C 4.0 C 7.1 km/h (2 Bft)
23.10.2007 10:00 4.7 C 75 % 1020.0 hPa 0.0 l/m 4.1 km/h (1 Bft) NO 0.00 h 81 W/m 0.7 C 4.2 C 8.9 km/h (2 Bft)
23.10.2007 11:00 5.1 C 74 % 1020.0 hPa 0.0 l/m 3.9 km/h (1 Bft) O 0.00 h 84 W/m 0.8 C 4.6 C 8.2 km/h (2 Bft)
23.10.2007 12:00 5.5 C 72 % 1020.0 hPa 0.0 l/m 4.7 km/h (1 Bft) O 0.00 h 141 W/m 1.0 C 4.8 C 10.0 km/h (2 Bft)
23.10.2007 13:00 6.1 C 72 % 1019.7 hPa 0.0 l/m 8.7 km/h (2 Bft) O-SO 0.02 h 184 W/m 1.4 C 4.4 C 15.9 km/h (3 Bft)
23.10.2007 14:00 6.1 C 73 % 1019.4 hPa 0.0 l/m 9.9 km/h (2 Bft) O-SO 0.00 h 137 W/m 1.6 C 4.1 C 17.2 km/h (3 Bft)
23.10.2007 15:00 6.3 C 73 % 1019.4 hPa 0.0 l/m 11.0 km/h (2 Bft) O-SO 0.00 h 128 W/m 1.7 C 4.1 C 17.6 km/h (3 Bft)
23.10.2007 16:00 6.5 C 71 % 1019.3 hPa 0.0 l/m 10.7 km/h (2 Bft) O-SO 0.15 h 102 W/m 1.7 C 4.5 C 17.2 km/h (3 Bft)
23.10.2007 17:00 6.4 C 73 % 1019.4 hPa 0.0 l/m 9.8 km/h (2 Bft) O-SO 0.13 h 52 W/m 1.8 C 4.4 C 15.2 km/h (3 Bft)
23.10.2007 18:00 6.2 C 74 % 1019.6 hPa 0.0 l/m 8.0 km/h (2 Bft) O-SO 0.05 h 10 W/m 1.8 C 4.7 C 13.3 km/h (3 Bft)
23.10.2007 19:00 5.9 C 75 % 1020.0 hPa 0.0 l/m 5.8 km/h (2 Bft) O 0.00 h 0 W/m 1.8 C 4.8 C 11.6 km/h (2 Bft)
23.10.2007 20:00 5.6 C 77 % 1020.0 hPa 0.0 l/m 4.1 km/h (1 Bft) O-SO 0.00 h 0 W/m 1.9 C 5.1 C 8.4 km/h (2 Bft)
23.10.2007 21:00 5.5 C 78 % 1019.7 hPa 0.0 l/m 4.7 km/h (1 Bft) O-SO 0.00 h 0 W/m 2.1 C 4.8 C 10.0 km/h (2 Bft)
23.10.2007 22:00 5.5 C 80 % 1019.7 hPa 0.0 l/m 4.8 km/h (1 Bft) O-SO 0.00 h 0 W/m 2.3 C 4.8 C 9.7 km/h (2 Bft)
23.10.2007 23:00 5.6 C 79 % 1019.4 hPa 0.0 l/m 3.1 km/h (1 Bft) NO 0.00 h 0 W/m 2.2 C 5.3 C 6.9 km/h (2 Bft)
24.10.2007 00:00 5.7 C 77 % 1018.9 hPa 0.0 l/m 3.6 km/h (1 Bft) N-NO 0.00 h 0 W/m 2.0 C 5.3 C 7.5 km/h (2 Bft)
24.10.2007 01:00 5.7 C 78 % 1018.7 hPa 0.0 l/m 3.4 km/h (1 Bft) O-SO 0.00 h 0 W/m 2.1 C 5.4 C 7.2 km/h (2 Bft)
24.10.2007 02:00 5.7 C 79 % 1018.4 hPa 0.0 l/m 4.3 km/h (1 Bft) O 0.00 h 0 W/m 2.3 C 5.1 C 8.9 km/h (2 Bft)
24.10.2007 03:00 5.5 C 79 % 1018.0 hPa 0.0 l/m 4.2 km/h (1 Bft) O 0.00 h 0 W/m 2.2 C 5.0 C 9.0 km/h (2 Bft)
24.10.2007 04:00 5.3 C 79 % 1017.5 hPa 0.0 l/m 3.9 km/h (1 Bft) O-NO 0.00 h 0 W/m 1.9 C 4.8 C 8.2 km/h (2 Bft)
24.10.2007 05:00 5.1 C 80 % 1017.3 hPa 0.0 l/m 3.7 km/h (1 Bft) O 0.00 h 0 W/m 1.9 C 4.6 C 7.9 km/h (2 Bft)
24.10.2007 06:00 4.9 C 79 % 1017.2 hPa 0.0 l/m 5.7 km/h (1 Bft) O-SO 0.00 h 0 W/m 1.6 C 3.8 C 10.5 km/h (2 Bft)
24.10.2007 07:00 4.7 C 78 % 1017.4 hPa 0.0 l/m 6.2 km/h (2 Bft) O-SO 0.00 h 0 W/m 1.3 C 3.6 C 11.7 km/h (2 Bft)
24.10.2007 08:00 4.7 C 78 % 1018.0 hPa 0.0 l/m 5.2 km/h (1 Bft) O 0.00 h 6 W/m 1.2 C 3.8 C 10.6 km/h (2 Bft)
24.10.2007 09:00 4.7 C 79 % 1018.3 hPa 0.0 l/m 4.8 km/h (1 Bft) O-NO 0.00 h 13 W/m 1.3 C 4.0 C 9.8 km/h (2 Bft)
24.10.2007 10:00 4.8 C 80 % 1018.3 hPa 0.0 l/m 4.7 km/h (1 Bft) N-NO 0.00 h 32 W/m 1.5 C 4.0 C 9.6 km/h (2 Bft)
24.10.2007 11:00 5.0 C 77 % 1018.4 hPa 0.0 l/m 5.2 km/h (1 Bft) O 0.00 h 45 W/m 1.3 C 4.2 C 10.8 km/h (2 Bft)
24.10.2007 12:00 5.5 C 74 % 1018.3 hPa 0.0 l/m 3.6 km/h (1 Bft) N-NO 0.00 h 66 W/m 1.3 C 5.0 C 7.9 km/h (2 Bft)
24.10.2007 13:00 5.9 C 72 % 1018.1 hPa 0.0 l/m 5.8 km/h (2 Bft) O 0.00 h 66 W/m 1.2 C 4.9 C 11.3 km/h (2 Bft)
24.10.2007 14:00 6.3 C 70 % 1017.6 hPa 0.0 l/m 5.3 km/h (1 Bft) NO 0.00 h 76 W/m 1.2 C 5.5 C 10.3 km/h (2 Bft)
24.10.2007 15:00 6.8 C 70 % 1017.1 hPa 0.0 l/m 3.3 km/h (1 Bft) NO 0.00 h 65 W/m 1.7 C 6.5 C 6.8 km/h (2 Bft)
24.10.2007 16:00 7.1 C 72 % 1017.1 hPa 0.0 l/m 3.6 km/h (1 Bft) NO 0.00 h 36 W/m 2.3 C 6.7 C 7.8 km/h (2 Bft)
24.10.2007 17:00 7.2 C 73 % 1017.2 hPa 0.0 l/m 4.3 km/h (1 Bft) N-NO 0.00 h 20 W/m 2.7 C 6.7 C 8.4 km/h (2 Bft)
24.10.2007 18:00 7.3 C 75 % 1017.6 hPa 0.0 l/m 3.5 km/h (1 Bft) N-NO 0.00 h 5 W/m 3.1 C 7.0 C 7.0 km/h (2 Bft)
24.10.2007 19:00 7.2 C 76 % 1018.2 hPa 0.0 l/m 2.8 km/h (1 Bft) N-NO 0.00 h 0 W/m 3.3 C 7.0 C 6.5 km/h (2 Bft)
24.10.2007 20:00 7.3 C 76 % 1018.6 hPa 0.0 l/m 2.3 km/h (1 Bft) N-NO 0.00 h 0 W/m 3.4 C 7.1 C 5.4 km/h (1 Bft)
24.10.2007 21:00 7.2 C 76 % 1018.7 hPa 0.0 l/m 3.2 km/h (1 Bft) N-NO 0.00 h 0 W/m 3.3 C 6.9 C 6.9 km/h (2 Bft)
24.10.2007 22:00 7.1 C 76 % 1019.1 hPa 0.0 l/m 1.5 km/h (1 Bft) NO 0.00 h 0 W/m 3.2 C 7.1 C 3.6 km/h (1 Bft)
24.10.2007 23:00 7.0 C 77 % 1019.3 hPa 0.0 l/m 1.5 km/h (1 Bft) N-NW 0.00 h 0 W/m 3.2 C 6.9 C 4.1 km/h (1 Bft)
25.10.2007 00:00 7.0 C 76 % 1019.4 hPa 0.0 l/m 3.2 km/h (1 Bft) O-NO 0.00 h 0 W/m 3.0 C 6.7 C 7.1 km/h (2 Bft)
25.10.2007 01:00 6.8 C 76 % 1019.3 hPa 0.0 l/m 3.9 km/h (1 Bft) O 0.00 h 0 W/m 2.9 C 6.3 C 8.2 km/h (2 Bft)
25.10.2007 02:00 6.7 C 78 % 1019.5 hPa 0.0 l/m 2.3 km/h (1 Bft) N-NO 0.00 h 0 W/m 3.2 C 6.6 C 5.3 km/h (1 Bft)
25.10.2007 03:00 6.6 C 78 % 1019.4 hPa 0.0 l/m 3.0 km/h (1 Bft) O 0.00 h 0 W/m 3.0 C 6.4 C 6.5 km/h (2 Bft)
25.10.2007 04:00 6.6 C 76 % 1019.2 hPa 0.0 l/m 2.6 km/h (1 Bft) O 0.00 h 0 W/m 2.7 C 6.4 C 5.6 km/h (1 Bft)
25.10.2007 05:00 6.6 C 76 % 1019.1 hPa 0.0 l/m 1.7 km/h (1 Bft) O-SO 0.00 h 0 W/m 2.7 C 6.5 C 4.0 km/h (1 Bft)
25.10.2007 06:00 6.4 C 77 % 1019.2 hPa 0.0 l/m 2.4 km/h (1 Bft) O-NO 0.00 h 0 W/m 2.7 C 6.3 C 5.6 km/h (1 Bft)
25.10.2007 07:00 6.4 C 78 % 1019.2 hPa 0.0 l/m 4.2 km/h (1 Bft) O-SO 0.00 h 0 W/m 2.9 C 5.9 C 7.4 km/h (2 Bft)
25.10.2007 08:00 6.4 C 78 % 1019.6 hPa 0.0 l/m 2.3 km/h (1 Bft) O-SO 0.00 h 8 W/m 2.9 C 6.3 C 5.1 km/h (1 Bft)
25.10.2007 09:00 6.4 C 77 % 1019.8 hPa 0.0 l/m 4.1 km/h (1 Bft) O-SO 0.00 h 22 W/m 2.7 C 5.9 C 7.1 km/h (2 Bft)
25.10.2007 10:00 6.7 C 76 % 1019.9 hPa 0.0 l/m 2.8 km/h (1 Bft) O-SO 0.00 h 71 W/m 2.8 C 6.5 C 6.1 km/h (2 Bft)
25.10.2007 11:00 7.0 C 75 % 1019.8 hPa 0.0 l/m 5.3 km/h (1 Bft) O-SO 0.00 h 79 W/m 2.9 C 6.2 C 8.7 km/h (2 Bft)
25.10.2007 12:00 7.2 C 76 % 1019.6 hPa 0.0 l/m 7.8 km/h (2 Bft) O-SO 0.00 h 76 W/m 3.2 C 5.8 C 12.3 km/h (3 Bft)
25.10.2007 13:00 7.4 C 75 % 1019.5 hPa 0.0 l/m 5.7 km/h (1 Bft) O-SO 0.00 h 97 W/m 3.3 C 6.6 C 8.6 km/h (2 Bft)
25.10.2007 14:00 7.9 C 74 % 1019.0 hPa 0.0 l/m 4.8 km/h (1 Bft) O-SO 0.00 h 105 W/m 3.5 C 7.4 C 7.4 km/h (2 Bft)
25.10.2007 15:00 8.4 C 73 % 1018.6 hPa 0.0 l/m 3.6 km/h (1 Bft) O-SO 0.00 h 96 W/m 3.8 C 8.0 C 5.8 km/h (2 Bft)
25.10.2007 16:00 8.6 C 73 % 1018.4 hPa 0.0 l/m 3.7 km/h (1 Bft) O-SO 0.00 h 58 W/m 4.1 C 8.3 C 6.2 km/h (2 Bft)
25.10.2007 17:00 8.7 C 72 % 1018.4 hPa 0.0 l/m 3.7 km/h (1 Bft) O-SO 0.00 h 20 W/m 4.0 C 8.4 C 7.0 km/h (2 Bft)
25.10.2007 18:00 8.6 C 73 % 1018.5 hPa 0.0 l/m 1.1 km/h (1 Bft) O-SO 0.00 h 5 W/m 4.0 C 8.6 C 2.9 km/h (1 Bft)
25.10.2007 19:00 8.6 C 72 % 1018.7 hPa 0.0 l/m 1.5 km/h (1 Bft) N-NO 0.00 h 0 W/m 3.9 C 8.6 C 4.0 km/h (1 Bft)
25.10.2007 20:00 8.5 C 75 % 1018.7 hPa 0.0 l/m 1.7 km/h (1 Bft) O-SO 0.00 h 0 W/m 4.3 C 8.4 C 3.5 km/h (1 Bft)
25.10.2007 21:00 8.5 C 77 % 1018.7 hPa 0.0 l/m 2.1 km/h (1 Bft) O-SO 0.00 h 0 W/m 4.7 C 8.3 C 4.7 km/h (1 Bft)
25.10.2007 22:00 8.5 C 76 % 1018.7 hPa 0.0 l/m 1.6 km/h (1 Bft) O-NO 0.00 h 0 W/m 4.6 C 8.4 C 4.1 km/h (1 Bft)
25.10.2007 23:00 8.5 C 76 % 1018.5 hPa 0.0 l/m 3.2 km/h (1 Bft) NO 0.00 h 0 W/m 4.5 C 8.3 C 6.6 km/h (2 Bft)
26.10.2007 00:00 8.4 C 75 % 1018.3 hPa 0.0 l/m 2.3 km/h (1 Bft) NO 0.00 h 0 W/m 4.3 C 8.3 C 5.1 km/h (1 Bft)
26.10.2007 01:00 8.2 C 76 % 1018.0 hPa 0.0 l/m 2.7 km/h (1 Bft) NO 0.00 h 0 W/m 4.3 C 8.1 C 6.2 km/h (2 Bft)
26.10.2007 02:00 8.0 C 78 % 1017.8 hPa 0.0 l/m 2.5 km/h (1 Bft) NO 0.00 h 0 W/m 4.4 C 7.9 C 6.0 km/h (2 Bft)
26.10.2007 03:00 7.8 C 78 % 1017.3 hPa 0.0 l/m 3.4 km/h (1 Bft) NO 0.00 h 0 W/m 4.2 C 7.5 C 7.6 km/h (2 Bft)
26.10.2007 04:00 7.8 C 77 % 1016.9 hPa 0.0 l/m 4.0 km/h (1 Bft) O 0.00 h 0 W/m 4.1 C 7.4 C 8.7 km/h (2 Bft)
26.10.2007 05:00 7.7 C 78 % 1016.7 hPa 0.0 l/m 2.7 km/h (1 Bft) O 0.00 h 0 W/m 4.1 C 7.5 C 6.0 km/h (2 Bft)
26.10.2007 06:00 7.6 C 79 % 1016.4 hPa 0.0 l/m 2.5 km/h (1 Bft) O-SO 0.00 h 0 W/m 4.2 C 7.4 C 5.8 km/h (2 Bft)
26.10.2007 07:00 7.6 C 78 % 1016.2 hPa 0.0 l/m 2.8 km/h (1 Bft) NO 0.00 h 0 W/m 4.0 C 7.4 C 6.8 km/h (2 Bft)
26.10.2007 08:00 7.6 C 79 % 1016.3 hPa 0.0 l/m 1.7 km/h (1 Bft) O 0.00 h 10 W/m 4.1 C 7.5 C 4.0 km/h (1 Bft)
26.10.2007 09:00 7.7 C 78 % 1016.4 hPa 0.0 l/m 2.0 km/h (1 Bft) NO 0.00 h 39 W/m 4.1 C 7.6 C 5.0 km/h (1 Bft)
26.10.2007 10:00 7.9 C 77 % 1016.6 hPa 0.0 l/m 2.3 km/h (1 Bft) O-SO 0.00 h 75 W/m 4.2 C 7.8 C 5.5 km/h (1 Bft)
26.10.2007 11:00 8.2 C 77 % 1016.8 hPa 0.0 l/m 3.4 km/h (1 Bft) NO 0.00 h 95 W/m 4.4 C 7.9 C 7.2 km/h (2 Bft)
26.10.2007 12:00 8.9 C 75 % 1016.8 hPa 0.0 l/m 3.1 km/h (1 Bft) NO 0.00 h 156 W/m 4.6 C 8.7 C 6.5 km/h (2 Bft)
26.10.2007 13:00 9.0 C 73 % 1017.0 hPa 0.0 l/m 2.8 km/h (1 Bft) O 0.00 h 137 W/m 4.4 C 8.9 C 6.0 km/h (2 Bft)
26.10.2007 14:00 9.2 C 73 % 1017.1 hPa 0.0 l/m 4.8 km/h (1 Bft) O-SO 0.00 h 117 W/m 4.6 C 8.7 C 7.4 km/h (2 Bft)
26.10.2007 15:00 9.3 C 73 % 1017.5 hPa 0.0 l/m 4.0 km/h (1 Bft) SO 0.00 h 100 W/m 4.7 C 9.1 C 6.1 km/h (2 Bft)
26.10.2007 16:00 9.2 C 74 % 1018.0 hPa 0.0 l/m 3.7 km/h (1 Bft) SO 0.00 h 57 W/m 4.8 C 9.0 C 5.9 km/h (2 Bft)
26.10.2007 17:00 8.8 C 75 % 1018.5 hPa 0.0 l/m 6.2 km/h (2 Bft) O-SO 0.00 h 26 W/m 4.7 C 8.1 C 8.5 km/h (2 Bft)
26.10.2007 18:00 8.6 C 76 % 1019.3 hPa 0.0 l/m 4.8 km/h (1 Bft) O-SO 0.00 h 5 W/m 4.6 C 8.2 C 6.4 km/h (2 Bft)
26.10.2007 19:00 8.3 C 78 % 1020.3 hPa 0.0 l/m 1.9 km/h (1 Bft) O-SO 0.00 h 0 W/m 4.8 C 8.2 C 2.2 km/h (1 Bft)
26.10.2007 20:00 8.2 C 79 % 1021.1 hPa 0.0 l/m 0.6 km/h (0 Bft) O-SO 0.00 h 0 W/m 4.7 C 8.2 C 1.1 km/h (1 Bft)
26.10.2007 21:00 8.1 C 82 % 1021.8 hPa 0.0 l/m 1.3 km/h (1 Bft) O-SO 0.00 h 0 W/m 5.1 C 8.1 C 1.9 km/h (1 Bft)
26.10.2007 22:00 7.8 C 83 % 1022.7 hPa 0.0 l/m 1.0 km/h (0 Bft) O-SO 0.00 h 0 W/m 5.1 C 7.8 C 1.7 km/h (1 Bft)
26.10.2007 23:00 7.8 C 85 % 1023.3 hPa 0.0 l/m 0.7 km/h (0 Bft) O-SO 0.00 h 0 W/m 5.4 C 7.8 C 1.5 km/h (1 Bft)
27.10.2007 00:00 7.8 C 85 % 1023.8 hPa 0.0 l/m 1.4 km/h (1 Bft) SO 0.00 h 0 W/m 5.4 C 7.7 C 2.8 km/h (1 Bft)
27.10.2007 01:00 7.8 C 82 % 1024.3 hPa 0.0 l/m 1.6 km/h (1 Bft) S-SO 0.00 h 0 W/m 5.0 C 7.8 C 3.8 km/h (1 Bft)
27.10.2007 02:00 7.8 C 82 % 1025.0 hPa 0.0 l/m 0.2 km/h (0 Bft) S-SO 0.00 h 0 W/m 5.0 C 7.8 C 0.8 km/h (0 Bft)
27.10.2007 03:00 7.8 C 83 % 1025.9 hPa 0.0 l/m 0.8 km/h (0 Bft) S-SO 0.00 h 0 W/m 5.2 C 7.8 C 1.9 km/h (1 Bft)
27.10.2007 04:00 7.8 C 83 % 1026.0 hPa 0.0 l/m 0.4 km/h (0 Bft) SW 0.00 h 0 W/m 5.2 C 7.8 C 1.6 km/h (1 Bft)
27.10.2007 05:00 7.8 C 83 % 1026.6 hPa 0.0 l/m 2.2 km/h (1 Bft) S-SO 0.00 h 0 W/m 5.1 C 7.7 C 4.3 km/h (1 Bft)
27.10.2007 06:00 7.8 C 83 % 1027.1 hPa 0.0 l/m 1.0 km/h (0 Bft) S-SO 0.00 h 0 W/m 5.1 C 7.8 C 2.3 km/h (1 Bft)
27.10.2007 07:00 7.8 C 84 % 1027.8 hPa 0.0 l/m 0.5 km/h (0 Bft) S-SO 0.00 h 0 W/m 5.2 C 7.8 C 1.3 km/h (1 Bft)
27.10.2007 08:00 7.7 C 85 % 1028.2 hPa 0.0 l/m 1.1 km/h (1 Bft) S-SO 0.00 h 11 W/m 5.4 C 7.7 C 2.6 km/h (1 Bft)
27.10.2007 09:00 7.8 C 85 % 1028.3 hPa 0.0 l/m 0.2 km/h (0 Bft) S-SO 0.00 h 26 W/m 5.5 C 7.8 C 0.7 km/h (0 Bft)
27.10.2007 10:00 8.1 C 83 % 1029.1 hPa 0.0 l/m 0.1 km/h (0 Bft) O 0.00 h 40 W/m 5.4 C 8.1 C 0.6 km/h (0 Bft)
27.10.2007 11:00 8.8 C 80 % 1029.3 hPa 0.0 l/m 0.2 km/h (0 Bft) SO 0.00 h 96 W/m 5.5 C 8.8 C 0.7 km/h (0 Bft)
27.10.2007 12:00 9.4 C 77 % 1029.7 hPa 0.0 l/m 0.4 km/h (0 Bft) SO 0.00 h 137 W/m 5.7 C 9.4 C 1.2 km/h (1 Bft)
27.10.2007 13:00 10.1 C 75 % 1029.3 hPa 0.0 l/m 1.0 km/h (0 Bft) SO 0.18 h 204 W/m 5.8 C 10.1 C 2.5 km/h (1 Bft)
27.10.2007 14:00 10.6 C 72 % 1028.9 hPa 0.0 l/m 0.8 km/h (0 Bft) SW 0.10 h 175 W/m 5.8 C 10.6 C 2.3 km/h (1 Bft)
27.10.2007 15:00 10.2 C 72 % 1028.8 hPa 0.0 l/m 1.5 km/h (1 Bft) O-SO 0.00 h 117 W/m 5.4 C 10.2 C 3.2 km/h (1 Bft)
27.10.2007 16:00 10.5 C 71 % 1028.5 hPa 0.0 l/m 1.3 km/h (1 Bft) SO 0.22 h 113 W/m 5.4 C 10.5 C 3.3 km/h (1 Bft)
27.10.2007 17:00 10.4 C 71 % 1028.1 hPa 0.0 l/m 0.6 km/h (0 Bft) S-SO 0.00 h 21 W/m 5.3 C 10.4 C 1.8 km/h (1 Bft)
27.10.2007 18:00 9.6 C 75 % 1028.0 hPa 0.0 l/m 1.2 km/h (1 Bft) S-SO 0.00 h 6 W/m 5.3 C 9.6 C 2.5 km/h (1 Bft)
27.10.2007 19:00 8.7 C 80 % 1028.2 hPa 0.0 l/m 1.4 km/h (1 Bft) SO 0.00 h 0 W/m 5.3 C 8.6 C 2.7 km/h (1 Bft)
27.10.2007 20:00 8.1 C 82 % 1028.6 hPa 0.0 l/m 0.6 km/h (0 Bft) O 0.00 h 0 W/m 5.2 C 8.1 C 1.4 km/h (1 Bft)
27.10.2007 21:00 7.1 C 85 % 1028.7 hPa 0.0 l/m 0.3 km/h (0 Bft) O-SO 0.00 h 0 W/m 4.8 C 7.1 C 1.0 km/h (0 Bft)
27.10.2007 22:00 6.2 C 89 % 1028.8 hPa 0.0 l/m 1.0 km/h (0 Bft) O-SO 0.00 h 0 W/m 4.5 C 6.2 C 1.8 km/h (1 Bft)
27.10.2007 23:00 5.6 C 90 % 1028.9 hPa 0.0 l/m 1.7 km/h (1 Bft) O-SO 0.00 h 0 W/m 4.0 C 5.5 C 2.5 km/h (1 Bft)
28.10.2007 00:00 4.9 C 91 % 1028.7 hPa 0.0 l/m 0.4 km/h (0 Bft) O 0.00 h 0 W/m 3.6 C 4.9 C 0.8 km/h (0 Bft)
28.10.2007 01:00 4.4 C 93 % 1028.2 hPa 0.0 l/m 1.6 km/h (1 Bft) O-SO 0.00 h 0 W/m 3.4 C 4.3 C 2.4 km/h (1 Bft)
28.10.2007 02:00 4.0 C 95 % 1027.0 hPa 0.0 l/m 1.0 km/h (0 Bft) O-SO 0.00 h 0 W/m 3.3 C 4.0 C 1.7 km/h (1 Bft)
28.10.2007 03:00 3.8 C 96 % 1026.7 hPa 0.0 l/m 0.5 km/h (0 Bft) O-SO 0.00 h 0 W/m 3.2 C 3.8 C 0.9 km/h (0 Bft)
28.10.2007 04:00 4.1 C 97 % 1026.8 hPa 0.0 l/m 0.1 km/h (0 Bft) O-SO 0.00 h 0 W/m 3.6 C 4.1 C 0.7 km/h (0 Bft)
28.10.2007 05:00 4.3 C 97 % 1026.7 hPa 0.0 l/m 0.6 km/h (0 Bft) O-SO 0.00 h 0 W/m 3.8 C 4.3 C 1.6 km/h (1 Bft)
28.10.2007 06:00 4.4 C 97 % 1026.3 hPa 0.0 l/m 0.2 km/h (0 Bft) O-SO 0.00 h 0 W/m 4.0 C 4.4 C 0.4 km/h (0 Bft)
28.10.2007 07:00 4.6 C 97 % 1026.4 hPa 0.0 l/m 0.0 km/h (0 Bft) N 0.03 h 23 W/m 4.2 C 4.6 C 0.0 km/h (0 Bft)
28.10.2007 08:00 5.4 C 98 % 1026.3 hPa 0.0 l/m 0.0 km/h (0 Bft) O-SO 0.00 h 69 W/m 5.1 C 5.4 C 0.2 km/h (0 Bft)
28.10.2007 09:00 6.2 C 96 % 1026.1 hPa 0.0 l/m 0.7 km/h (0 Bft) S-SO 0.00 h 96 W/m 5.6 C 6.2 C 2.1 km/h (1 Bft)
28.10.2007 10:00 7.1 C 89 % 1025.9 hPa 0.0 l/m 2.2 km/h (1 Bft) S 0.00 h 178 W/m 5.5 C 7.0 C 4.9 km/h (1 Bft)
28.10.2007 11:00 8.4 C 85 % 1025.5 hPa 0.0 l/m 1.2 km/h (1 Bft) S 0.13 h 236 W/m 6.0 C 8.4 C 3.4 km/h (1 Bft)
28.10.2007 12:00 9.5 C 80 % 1024.7 hPa 0.0 l/m 1.3 km/h (1 Bft) SO 0.20 h 235 W/m 6.3 C 9.5 C 3.3 km/h (1 Bft)
28.10.2007 13:00 10.0 C 78 % 1024.2 hPa 0.0 l/m 0.9 km/h (0 Bft) O-SO 0.00 h 190 W/m 6.3 C 10.0 C 2.3 km/h (1 Bft)
28.10.2007 14:00 11.1 C 74 % 1023.7 hPa 0.0 l/m 1.0 km/h (0 Bft) NW 0.88 h 248 W/m 6.6 C 11.1 C 2.7 km/h (1 Bft)
28.10.2007 15:00 11.2 C 73 % 1023.2 hPa 0.0 l/m 0.9 km/h (0 Bft) NW 0.38 h 149 W/m 6.6 C 11.2 C 2.1 km/h (1 Bft)
28.10.2007 16:00 10.3 C 76 % 1023.1 hPa 0.0 l/m 0.2 km/h (0 Bft) W 0.00 h 45 W/m 6.3 C 10.3 C 0.6 km/h (0 Bft)
28.10.2007 17:00 8.5 C 82 % 1023.0 hPa 0.0 l/m 3.6 km/h (1 Bft) O-SO 0.00 h 6 W/m 5.7 C 8.2 C 4.8 km/h (1 Bft)
28.10.2007 18:00 7.1 C 88 % 1023.2 hPa 0.0 l/m 0.7 km/h (0 Bft) O-SO 0.00 h 0 W/m 5.2 C 7.1 C 1.5 km/h (1 Bft)
28.10.2007 19:00 6.1 C 91 % 1023.1 hPa 0.0 l/m 0.9 km/h (0 Bft) O-SO 0.00 h 0 W/m 4.7 C 6.1 C 1.6 km/h (1 Bft)
28.10.2007 20:00 5.2 C 94 % 1023.2 hPa 0.0 l/m 1.1 km/h (1 Bft) O-SO 0.00 h 0 W/m 4.4 C 5.2 C 2.0 km/h (1 Bft)
28.10.2007 21:00 4.4 C 94 % 1022.9 hPa 0.0 l/m 1.1 km/h (1 Bft) O-SO 0.00 h 0 W/m 3.4 C 4.4 C 1.5 km/h (1 Bft)
28.10.2007 22:00 3.5 C 95 % 1022.4 hPa 0.0 l/m 1.0 km/h (0 Bft) O-SO 0.00 h 0 W/m 2.7 C 3.5 C 1.8 km/h (1 Bft)
28.10.2007 23:00 2.8 C 95 % 1021.9 hPa 0.0 l/m 2.3 km/h (1 Bft) O 0.00 h 0 W/m 2.1 C 2.7 C 3.5 km/h (1 Bft)
Min-Datum _ 22.10.07 22.10.07 26.10.07 - 22.10.07 - - - 22.10.07 22.10.07 22.10.07
_ Min-Zeit 06:00 14:55 07:00 - 00:00 - - - 15:02 09:39 00:52
Minimum _ 0.7 C 55 % 1016.2 hPa - 0.0 km/h (0 Bft) - - - -1.7 C -1.0 C 0.0 km/h (0 Bft)
Max-Datum _ 28.10.07 28.10.07 27.10.07 22.10.07 23.10.07 - 22.10.07 28.10.07 28.10.07 28.10.07 23.10.07
_ Max-Zeit 14:45 08:03 12:15 00:32 13:30 - 09:12 12:01 14:40 14:45 13:30
Maximum _ 12.1 C 98 % 1029.7 hPa 0.4 l/m 19.6 km/h
O-SO (3 Bft)
- 0.02 h 529 W/m 7.4 C 12.1 C 36.5 km/h
O-SO (5 Bft)
Durchschnitt _ 6.5 C 78 % 1021.6 hPa #0.6 l/m 3.0 km/h (1 Bft) O-SO #3:06 h 83 W/m 2.9 C 6.1 C 5.9 km/h (2 Bft)
© Kaiko 2007